sensor_id;sensor_type;location;lat;lon;timestamp;pressure;altitude;pressure_sealevel;temperature;humidity
64460;BME280;50828;53.756;21.140;2022-09-09T00:01:57;99896.48;;;13.47;47.67
64460;BME280;50828;53.756;21.140;2022-09-09T00:07:12;99906.77;;;13.43;47.75
64460;BME280;50828;53.756;21.140;2022-09-09T00:12:27;99914.77;;;13.39;47.85
64460;BME280;50828;53.756;21.140;2022-09-09T00:17:42;99910.39;;;13.35;48.03
64460;BME280;50828;53.756;21.140;2022-09-09T00:22:59;99904.56;;;13.31;47.96
64460;BME280;50828;53.756;21.140;2022-09-09T00:28:15;99899.61;;;13.28;48.17
64460;BME280;50828;53.756;21.140;2022-09-09T00:33:26;99894.29;;;13.21;48.23
64460;BME280;50828;53.756;21.140;2022-09-09T00:38:36;99894.36;;;13.20;48.47
64460;BME280;50828;53.756;21.140;2022-09-09T00:43:49;99885.10;;;13.15;48.42
64460;BME280;50828;53.756;21.140;2022-09-09T00:49:08;99878.98;;;13.14;48.44
64460;BME280;50828;53.756;21.140;2022-09-09T00:54:46;99871.27;;;13.09;48.45
64460;BME280;50828;53.756;21.140;2022-09-09T01:00:15;99874.22;;;13.07;48.54
64460;BME280;50828;53.756;21.140;2022-09-09T01:05:33;99872.67;;;13.06;48.45
64460;BME280;50828;53.756;21.140;2022-09-09T01:10:47;99858.88;;;13.03;48.38
64460;BME280;50828;53.756;21.140;2022-09-09T01:15:58;99856.75;;;13.00;48.36
64460;BME280;50828;53.756;21.140;2022-09-09T01:21:22;99856.96;;;12.96;48.61
64460;BME280;50828;53.756;21.140;2022-09-09T01:26:37;99853.43;;;12.93;48.47
64460;BME280;50828;53.756;21.140;2022-09-09T01:31:58;99851.10;;;12.90;48.45
64460;BME280;50828;53.756;21.140;2022-09-09T01:37:09;99847.06;;;12.86;48.45
64460;BME280;50828;53.756;21.140;2022-09-09T01:42:19;99844.56;;;12.83;48.60
64460;BME280;50828;53.756;21.140;2022-09-09T01:47:27;99838.52;;;12.81;48.70
64460;BME280;50828;53.756;21.140;2022-09-09T01:53:04;99830.44;;;12.77;48.61
64460;BME280;50828;53.756;21.140;2022-09-09T01:58:22;99835.09;;;12.72;48.62
64460;BME280;50828;53.756;21.140;2022-09-09T02:03:36;99836.84;;;12.69;48.99
64460;BME280;50828;53.756;21.140;2022-09-09T02:08:53;99828.02;;;12.65;49.00
64460;BME280;50828;53.756;21.140;2022-09-09T02:14:05;99828.20;;;12.62;48.95
64460;BME280;50828;53.756;21.140;2022-09-09T02:19:19;99825.27;;;12.57;48.94
64460;BME280;50828;53.756;21.140;2022-09-09T02:24:58;99824.15;;;12.55;49.24
64460;BME280;50828;53.756;21.140;2022-09-09T02:30:09;99819.45;;;12.50;49.26
64460;BME280;50828;53.756;21.140;2022-09-09T02:35:24;99821.09;;;12.49;49.37
64460;BME280;50828;53.756;21.140;2022-09-09T02:40:32;99816.79;;;12.44;49.20
64460;BME280;50828;53.756;21.140;2022-09-09T02:45:45;99817.79;;;12.42;49.29
64460;BME280;50828;53.756;21.140;2022-09-09T02:51:01;99822.85;;;12.40;49.53
64460;BME280;50828;53.756;21.140;2022-09-09T02:56:16;99824.79;;;12.36;49.51
64460;BME280;50828;53.756;21.140;2022-09-09T03:01:25;99826.46;;;12.31;49.65
64460;BME280;50828;53.756;21.140;2022-09-09T03:06:33;99821.45;;;12.29;49.47
64460;BME280;50828;53.756;21.140;2022-09-09T03:11:52;99820.34;;;12.26;49.61
64460;BME280;50828;53.756;21.140;2022-09-09T03:17:00;99819.80;;;12.24;49.77
64460;BME280;50828;53.756;21.140;2022-09-09T03:22:12;99815.85;;;12.21;49.51
64460;BME280;50828;53.756;21.140;2022-09-09T03:27:20;99813.33;;;12.19;49.53
64460;BME280;50828;53.756;21.140;2022-09-09T03:32:28;99806.55;;;12.17;49.62
64460;BME280;50828;53.756;21.140;2022-09-09T03:37:37;99810.78;;;12.14;49.69
64460;BME280;50828;53.756;21.140;2022-09-09T03:42:47;99817.52;;;12.13;49.93
64460;BME280;50828;53.756;21.140;2022-09-09T03:47:54;99813.19;;;12.11;50.01
64460;BME280;50828;53.756;21.140;2022-09-09T03:53:02;99821.69;;;12.10;50.01
64460;BME280;50828;53.756;21.140;2022-09-09T03:58:12;99823.35;;;12.09;49.99
64460;BME280;50828;53.756;21.140;2022-09-09T04:03:21;99819.30;;;12.09;50.18
64460;BME280;50828;53.756;21.140;2022-09-09T04:08:33;99815.98;;;12.08;50.11
64460;BME280;50828;53.756;21.140;2022-09-09T04:13:42;99813.81;;;12.09;50.20
64460;BME280;50828;53.756;21.140;2022-09-09T04:18:50;99816.82;;;12.09;50.29
64460;BME280;50828;53.756;21.140;2022-09-09T04:23:59;99815.02;;;12.09;49.97
64460;BME280;50828;53.756;21.140;2022-09-09T04:29:06;99811.02;;;12.09;50.10
64460;BME280;50828;53.756;21.140;2022-09-09T04:34:14;99816.36;;;12.11;50.40
64460;BME280;50828;53.756;21.140;2022-09-09T04:39:22;99810.34;;;12.11;50.21
64460;BME280;50828;53.756;21.140;2022-09-09T04:44:29;99813.02;;;12.11;50.27
64460;BME280;50828;53.756;21.140;2022-09-09T04:49:37;99808.47;;;12.10;50.10
64460;BME280;50828;53.756;21.140;2022-09-09T04:54:45;99814.73;;;12.12;50.27
64460;BME280;50828;53.756;21.140;2022-09-09T04:59:54;99815.97;;;12.12;50.52
64460;BME280;50828;53.756;21.140;2022-09-09T05:05:01;99815.16;;;12.11;50.33
64460;BME280;50828;53.756;21.140;2022-09-09T05:10:09;99823.73;;;12.12;50.31
64460;BME280;50828;53.756;21.140;2022-09-09T05:15:17;99832.30;;;12.14;50.72
64460;BME280;50828;53.756;21.140;2022-09-09T05:20:25;99834.05;;;12.14;50.39
64460;BME280;50828;53.756;21.140;2022-09-09T05:25:32;99836.54;;;12.14;50.48
64460;BME280;50828;53.756;21.140;2022-09-09T05:30:40;99837.09;;;12.14;50.48
64460;BME280;50828;53.756;21.140;2022-09-09T05:35:48;99838.19;;;12.13;50.59
64460;BME280;50828;53.756;21.140;2022-09-09T05:41:02;99836.64;;;12.08;51.09
64460;BME280;50828;53.756;21.140;2022-09-09T05:46:11;99841.63;;;12.07;51.11
64460;BME280;50828;53.756;21.140;2022-09-09T05:51:21;99840.99;;;11.99;51.61
64460;BME280;50828;53.756;21.140;2022-09-09T05:56:30;99842.86;;;11.89;52.14
64460;BME280;50828;53.756;21.140;2022-09-09T06:01:39;99849.36;;;11.79;52.76
64460;BME280;50828;53.756;21.140;2022-09-09T06:06:52;99853.95;;;11.68;53.22
64460;BME280;50828;53.756;21.140;2022-09-09T06:12:00;99854.73;;;11.55;53.45
64460;BME280;50828;53.756;21.140;2022-09-09T06:17:09;99861.73;;;11.46;53.69
64460;BME280;50828;53.756;21.140;2022-09-09T06:22:17;99874.15;;;11.36;54.51
64460;BME280;50828;53.756;21.140;2022-09-09T06:27:24;99873.39;;;11.27;54.89
64460;BME280;50828;53.756;21.140;2022-09-09T06:32:32;99872.67;;;11.15;55.22
64460;BME280;50828;53.756;21.140;2022-09-09T06:37:40;99876.22;;;11.07;55.46
64460;BME280;50828;53.756;21.140;2022-09-09T06:42:51;99875.79;;;10.97;56.03
64460;BME280;50828;53.756;21.140;2022-09-09T06:48:12;99875.56;;;10.87;56.88
64460;BME280;50828;53.756;21.140;2022-09-09T06:53:20;99881.83;;;10.77;57.37
64460;BME280;50828;53.756;21.140;2022-09-09T06:58:27;99887.17;;;10.67;57.50
64460;BME280;50828;53.756;21.140;2022-09-09T07:03:36;99886.05;;;10.57;58.17
64460;BME280;50828;53.756;21.140;2022-09-09T07:08:47;99885.52;;;10.48;58.25
64460;BME280;50828;53.756;21.140;2022-09-09T07:14:02;99892.36;;;10.41;59.00
64460;BME280;50828;53.756;21.140;2022-09-09T07:19:13;99887.97;;;10.32;59.19
64460;BME280;50828;53.756;21.140;2022-09-09T07:24:22;99886.41;;;10.27;59.53
64460;BME280;50828;53.756;21.140;2022-09-09T07:29:29;99889.09;;;10.22;59.88
64460;BME280;50828;53.756;21.140;2022-09-09T07:34:37;99890.67;;;10.18;60.14
64460;BME280;50828;53.756;21.140;2022-09-09T07:39:44;99892.91;;;10.15;60.54
64460;BME280;50828;53.756;21.140;2022-09-09T07:44:52;99894.71;;;10.10;61.07
64460;BME280;50828;53.756;21.140;2022-09-09T07:50:01;99896.88;;;10.04;61.91
64460;BME280;50828;53.756;21.140;2022-09-09T07:55:09;99903.09;;;9.98;61.91
64460;BME280;50828;53.756;21.140;2022-09-09T08:00:17;99911.93;;;9.93;62.45
64460;BME280;50828;53.756;21.140;2022-09-09T08:05:28;99915.38;;;9.90;62.58
64460;BME280;50828;53.756;21.140;2022-09-09T08:10:36;99921.86;;;9.87;62.99
64460;BME280;50828;53.756;21.140;2022-09-09T08:15:44;99918.83;;;9.83;63.23
64460;BME280;50828;53.756;21.140;2022-09-09T08:20:53;99925.91;;;9.82;63.43
64460;BME280;50828;53.756;21.140;2022-09-09T08:26:07;99926.23;;;9.79;63.65
64460;BME280;50828;53.756;21.140;2022-09-09T08:31:18;99936.89;;;9.76;63.83
64460;BME280;50828;53.756;21.140;2022-09-09T08:36:33;99935.36;;;9.74;64.18
64460;BME280;50828;53.756;21.140;2022-09-09T08:42:12;99930.19;;;9.71;64.48
64460;BME280;50828;53.756;21.140;2022-09-09T08:47:24;99932.66;;;9.71;64.87
64460;BME280;50828;53.756;21.140;2022-09-09T08:52:42;99931.08;;;9.71;65.29
64460;BME280;50828;53.756;21.140;2022-09-09T08:57:57;99935.85;;;9.71;65.16
64460;BME280;50828;53.756;21.140;2022-09-09T09:03:08;99930.73;;;9.71;65.00
64460;BME280;50828;53.756;21.140;2022-09-09T09:08:27;99925.60;;;9.72;65.99
64460;BME280;50828;53.756;21.140;2022-09-09T09:13:45;99923.30;;;9.72;65.40
64460;BME280;50828;53.756;21.140;2022-09-09T09:18:55;99922.39;;;9.73;65.79
64460;BME280;50828;53.756;21.140;2022-09-09T09:24:12;99930.81;;;9.73;66.10
64460;BME280;50828;53.756;21.140;2022-09-09T09:29:27;99938.48;;;9.76;66.22
64460;BME280;50828;53.756;21.140;2022-09-09T09:34:35;99935.81;;;9.76;66.31
64460;BME280;50828;53.756;21.140;2022-09-09T09:39:43;99937.79;;;9.80;66.54
64460;BME280;50828;53.756;21.140;2022-09-09T09:45:25;99935.92;;;9.82;66.59
64460;BME280;50828;53.756;21.140;2022-09-09T09:50:35;99940.77;;;9.84;66.60
64460;BME280;50828;53.756;21.140;2022-09-09T09:55:57;99952.59;;;9.88;66.80
64460;BME280;50828;53.756;21.140;2022-09-09T10:01:22;99956.03;;;9.90;66.90
64460;BME280;50828;53.756;21.140;2022-09-09T10:06:44;99950.61;;;9.89;67.02
64460;BME280;50828;53.756;21.140;2022-09-09T10:12:02;99941.15;;;9.88;67.08
64460;BME280;50828;53.756;21.140;2022-09-09T10:17:24;99954.90;;;9.96;67.40
64460;BME280;50828;53.756;21.140;2022-09-09T10:22:35;99950.34;;;10.00;67.29
64460;BME280;50828;53.756;21.140;2022-09-09T10:27:53;99952.66;;;10.03;67.43
64460;BME280;50828;53.756;21.140;2022-09-09T10:33:12;99958.35;;;10.06;67.61
64460;BME280;50828;53.756;21.140;2022-09-09T10:38:28;99952.67;;;10.08;67.75
64460;BME280;50828;53.756;21.140;2022-09-09T10:43:54;99955.63;;;10.12;67.70
64460;BME280;50828;53.756;21.140;2022-09-09T10:49:13;99960.83;;;10.15;67.67
64460;BME280;50828;53.756;21.140;2022-09-09T10:54:35;99956.42;;;10.19;68.24
64460;BME280;50828;53.756;21.140;2022-09-09T10:59:50;99960.13;;;10.23;68.11
64460;BME280;50828;53.756;21.140;2022-09-09T11:05:08;99956.05;;;10.28;68.20
64460;BME280;50828;53.756;21.140;2022-09-09T11:10:23;99958.23;;;10.31;68.00
64460;BME280;50828;53.756;21.140;2022-09-09T11:15:35;99962.18;;;10.34;68.23
64460;BME280;50828;53.756;21.140;2022-09-09T11:20:45;99960.77;;;10.38;68.28
64460;BME280;50828;53.756;21.140;2022-09-09T11:25:56;99967.34;;;10.41;68.25
64460;BME280;50828;53.756;21.140;2022-09-09T11:31:16;99966.46;;;10.45;68.34
64460;BME280;50828;53.756;21.140;2022-09-09T11:36:33;99971.88;;;10.51;68.34
64460;BME280;50828;53.756;21.140;2022-09-09T11:41:42;99975.46;;;10.53;69.02
64460;BME280;50828;53.756;21.140;2022-09-09T11:46:52;99975.59;;;10.54;68.50
64460;BME280;50828;53.756;21.140;2022-09-09T11:52:00;99978.84;;;10.57;68.70
64460;BME280;50828;53.756;21.140;2022-09-09T11:57:26;99984.89;;;10.60;68.56
64460;BME280;50828;53.756;21.140;2022-09-09T12:02:50;99990.44;;;10.62;69.06
64460;BME280;50828;53.756;21.140;2022-09-09T12:07:58;99987.78;;;10.62;68.88
64460;BME280;50828;53.756;21.140;2022-09-09T12:13:18;99988.98;;;10.62;68.83
64460;BME280;50828;53.756;21.140;2022-09-09T12:18:32;99992.40;;;10.65;69.28
64460;BME280;50828;53.756;21.140;2022-09-09T12:23:45;99987.42;;;10.66;69.29
64460;BME280;50828;53.756;21.140;2022-09-09T12:29:00;99988.41;;;10.68;69.20
64460;BME280;50828;53.756;21.140;2022-09-09T12:34:14;99984.77;;;10.67;69.53
64460;BME280;50828;53.756;21.140;2022-09-09T12:39:29;99987.80;;;10.70;69.83
64460;BME280;50828;53.756;21.140;2022-09-09T12:44:39;99989.41;;;10.69;69.51
64460;BME280;50828;53.756;21.140;2022-09-09T12:49:57;99992.66;;;10.71;69.94
64460;BME280;50828;53.756;21.140;2022-09-09T12:55:07;99989.11;;;10.72;69.70
64460;BME280;50828;53.756;21.140;2022-09-09T13:00:20;99986.89;;;10.74;70.09
64460;BME280;50828;53.756;21.140;2022-09-09T13:05:35;99990.34;;;10.76;70.16
64460;BME280;50828;53.756;21.140;2022-09-09T13:10:48;99989.17;;;10.79;70.32
64460;BME280;50828;53.756;21.140;2022-09-09T13:16:20;99988.33;;;10.82;70.63
64460;BME280;50828;53.756;21.140;2022-09-09T13:21:37;99984.55;;;10.84;70.25
64460;BME280;50828;53.756;21.140;2022-09-09T13:26:53;99984.77;;;10.87;70.44
64460;BME280;50828;53.756;21.140;2022-09-09T13:32:12;99983.31;;;10.88;70.73
64460;BME280;50828;53.756;21.140;2022-09-09T13:37:26;99980.22;;;10.90;70.65
64460;BME280;50828;53.756;21.140;2022-09-09T13:42:39;99980.95;;;10.94;70.49
64460;BME280;50828;53.756;21.140;2022-09-09T13:47:48;99983.15;;;10.96;70.55
64460;BME280;50828;53.756;21.140;2022-09-09T13:52:59;99983.10;;;10.97;70.55
64460;BME280;50828;53.756;21.140;2022-09-09T13:58:14;99986.16;;;10.99;70.61
64460;BME280;50828;53.756;21.140;2022-09-09T14:03:24;99989.64;;;11.01;70.79
64460;BME280;50828;53.756;21.140;2022-09-09T14:08:31;99992.80;;;11.01;70.87
64460;BME280;50828;53.756;21.140;2022-09-09T14:13:44;99997.45;;;11.03;70.77
64460;BME280;50828;53.756;21.140;2022-09-09T14:18:51;99998.64;;;11.04;70.95
64460;BME280;50828;53.756;21.140;2022-09-09T14:23:59;99997.86;;;11.06;70.90
64460;BME280;50828;53.756;21.140;2022-09-09T14:29:06;99995.82;;;11.04;71.15
64460;BME280;50828;53.756;21.140;2022-09-09T14:34:15;99993.52;;;11.08;71.05
64460;BME280;50828;53.756;21.140;2022-09-09T14:39:23;99995.27;;;11.09;71.28
64460;BME280;50828;53.756;21.140;2022-09-09T14:44:31;99987.96;;;11.11;70.91
64460;BME280;50828;53.756;21.140;2022-09-09T14:49:39;99984.41;;;11.11;71.35
64460;BME280;50828;53.756;21.140;2022-09-09T14:54:55;99989.95;;;11.14;71.40
64460;BME280;50828;53.756;21.140;2022-09-09T15:00:03;99980.78;;;11.13;71.38
64460;BME280;50828;53.756;21.140;2022-09-09T15:05:11;99982.97;;;11.16;71.47
64460;BME280;50828;53.756;21.140;2022-09-09T15:10:19;99987.11;;;11.18;71.31
64460;BME280;50828;53.756;21.140;2022-09-09T15:15:27;99989.90;;;11.18;71.35
64460;BME280;50828;53.756;21.140;2022-09-09T15:20:34;99992.83;;;11.20;71.37
64460;BME280;50828;53.756;21.140;2022-09-09T15:25:53;99989.94;;;11.22;71.58
64460;BME280;50828;53.756;21.140;2022-09-09T15:31:06;100003.05;;;11.24;71.31
64460;BME280;50828;53.756;21.140;2022-09-09T15:36:19;100015.59;;;11.28;71.66
64460;BME280;50828;53.756;21.140;2022-09-09T15:41:28;100013.55;;;11.30;71.45
64460;BME280;50828;53.756;21.140;2022-09-09T15:46:39;100016.53;;;11.30;71.55
64460;BME280;50828;53.756;21.140;2022-09-09T15:51:50;100017.50;;;11.32;71.66
64460;BME280;50828;53.756;21.140;2022-09-09T15:57:00;100020.94;;;11.34;71.63
64460;BME280;50828;53.756;21.140;2022-09-09T16:02:09;100023.45;;;11.33;71.84
64460;BME280;50828;53.756;21.140;2022-09-09T16:07:16;100026.61;;;11.34;71.64
64460;BME280;50828;53.756;21.140;2022-09-09T16:12:24;100025.82;;;11.35;71.87
64460;BME280;50828;53.756;21.140;2022-09-09T16:17:33;100028.15;;;11.34;71.80
64460;BME280;50828;53.756;21.140;2022-09-09T16:22:44;100035.64;;;11.37;71.90
64460;BME280;50828;53.756;21.140;2022-09-09T16:27:52;100028.11;;;11.35;71.91
64460;BME280;50828;53.756;21.140;2022-09-09T16:33:01;100033.50;;;11.37;71.67
64460;BME280;50828;53.756;21.140;2022-09-09T16:38:10;100028.23;;;11.37;71.79
64460;BME280;50828;53.756;21.140;2022-09-09T16:43:18;100031.91;;;11.37;71.57
64460;BME280;50828;53.756;21.140;2022-09-09T16:48:28;100030.52;;;11.37;71.77
64460;BME280;50828;53.756;21.140;2022-09-09T16:53:38;100033.73;;;11.36;71.65
64460;BME280;50828;53.756;21.140;2022-09-09T16:58:51;100034.26;;;11.36;71.74
64460;BME280;50828;53.756;21.140;2022-09-09T17:04:03;100039.23;;;11.35;72.02
64460;BME280;50828;53.756;21.140;2022-09-09T17:09:12;100038.00;;;11.35;71.96
64460;BME280;50828;53.756;21.140;2022-09-09T17:14:22;100035.91;;;11.34;71.94
64460;BME280;50828;53.756;21.140;2022-09-09T17:19:31;100031.02;;;11.33;72.28
64460;BME280;50828;53.756;21.140;2022-09-09T17:24:39;100036.15;;;11.33;72.11
64460;BME280;50828;53.756;21.140;2022-09-09T17:29:47;100035.98;;;11.33;71.90
64460;BME280;50828;53.756;21.140;2022-09-09T17:34:55;100030.16;;;11.33;71.99
64460;BME280;50828;53.756;21.140;2022-09-09T17:40:04;100028.83;;;11.31;72.37
64460;BME280;50828;53.756;21.140;2022-09-09T17:45:13;100035.88;;;11.31;72.37
64460;BME280;50828;53.756;21.140;2022-09-09T17:50:22;100041.18;;;11.31;72.04
64460;BME280;50828;53.756;21.140;2022-09-09T17:55:30;100048.44;;;11.31;72.19
64460;BME280;50828;53.756;21.140;2022-09-09T18:00:40;100051.48;;;11.30;72.40
64460;BME280;50828;53.756;21.140;2022-09-09T18:05:48;100049.54;;;11.30;72.37
64460;BME280;50828;53.756;21.140;2022-09-09T18:10:56;100056.30;;;11.28;72.19
64460;BME280;50828;53.756;21.140;2022-09-09T18:16:08;100061.77;;;11.28;72.44
64460;BME280;50828;53.756;21.140;2022-09-09T18:21:18;100058.06;;;11.28;72.42
64460;BME280;50828;53.756;21.140;2022-09-09T18:26:26;100055.66;;;11.26;72.33
64460;BME280;50828;53.756;21.140;2022-09-09T18:31:35;100062.70;;;11.27;72.20
64460;BME280;50828;53.756;21.140;2022-09-09T18:36:46;100057.95;;;11.26;72.51
64460;BME280;50828;53.756;21.140;2022-09-09T18:41:56;100054.45;;;11.26;72.29
64460;BME280;50828;53.756;21.140;2022-09-09T18:47:06;100057.04;;;11.23;72.35
64460;BME280;50828;53.756;21.140;2022-09-09T18:52:14;100061.79;;;11.24;72.47
64460;BME280;50828;53.756;21.140;2022-09-09T18:57:23;100059.02;;;11.22;72.50
64460;BME280;50828;53.756;21.140;2022-09-09T19:02:31;100067.16;;;11.22;72.39
64460;BME280;50828;53.756;21.140;2022-09-09T19:07:40;100064.88;;;11.21;72.55
64460;BME280;50828;53.756;21.140;2022-09-09T19:12:47;100070.72;;;11.21;72.54
64460;BME280;50828;53.756;21.140;2022-09-09T19:17:57;100070.98;;;11.18;72.72
64460;BME280;50828;53.756;21.140;2022-09-09T19:23:11;100075.91;;;11.18;72.74
64460;BME280;50828;53.756;21.140;2022-09-09T19:28:19;100078.88;;;11.15;72.74
64460;BME280;50828;53.756;21.140;2022-09-09T19:33:28;100080.41;;;11.16;72.81
64460;BME280;50828;53.756;21.140;2022-09-09T19:38:37;100077.13;;;11.15;72.55
64460;BME280;50828;53.756;21.140;2022-09-09T19:43:46;100078.20;;;11.15;72.82
64460;BME280;50828;53.756;21.140;2022-09-09T19:48:56;100080.36;;;11.14;72.75
64460;BME280;50828;53.756;21.140;2022-09-09T19:54:08;100078.14;;;11.12;72.72
64460;BME280;50828;53.756;21.140;2022-09-09T19:59:17;100086.60;;;11.12;72.71
64460;BME280;50828;53.756;21.140;2022-09-09T20:04:25;100090.71;;;11.11;72.78
64460;BME280;50828;53.756;21.140;2022-09-09T20:09:33;100085.66;;;11.09;72.60
64460;BME280;50828;53.756;21.140;2022-09-09T20:14:41;100085.08;;;11.07;72.92
64460;BME280;50828;53.756;21.140;2022-09-09T20:19:49;100079.81;;;11.06;72.74
64460;BME280;50828;53.756;21.140;2022-09-09T20:24:57;100068.11;;;11.04;72.98
64460;BME280;50828;53.756;21.140;2022-09-09T20:30:07;100071.27;;;11.04;72.93
64460;BME280;50828;53.756;21.140;2022-09-09T20:35:15;100069.55;;;11.03;72.93
64460;BME280;50828;53.756;21.140;2022-09-09T20:40:23;100060.42;;;11.02;72.77
64460;BME280;50828;53.756;21.140;2022-09-09T20:45:38;100059.55;;;11.02;72.86
64460;BME280;50828;53.756;21.140;2022-09-09T20:50:49;100064.89;;;11.00;73.19
64460;BME280;50828;53.756;21.140;2022-09-09T20:56:01;100066.35;;;10.99;72.89
64460;BME280;50828;53.756;21.140;2022-09-09T21:01:15;100070.24;;;10.98;73.19
64460;BME280;50828;53.756;21.140;2022-09-09T21:06:25;100067.81;;;10.98;73.26
64460;BME280;50828;53.756;21.140;2022-09-09T21:11:33;100054.81;;;10.97;73.19
64460;BME280;50828;53.756;21.140;2022-09-09T21:16:41;100057.45;;;10.97;73.07
64460;BME280;50828;53.756;21.140;2022-09-09T21:21:50;100069.48;;;10.96;73.06
64460;BME280;50828;53.756;21.140;2022-09-09T21:26:59;100073.71;;;10.96;73.19
64460;BME280;50828;53.756;21.140;2022-09-09T21:32:07;100073.91;;;10.95;73.17
64460;BME280;50828;53.756;21.140;2022-09-09T21:37:16;100072.70;;;10.95;73.29
64460;BME280;50828;53.756;21.140;2022-09-09T21:42:24;100076.38;;;10.96;73.07
64460;BME280;50828;53.756;21.140;2022-09-09T21:47:33;100068.98;;;10.96;73.07
64460;BME280;50828;53.756;21.140;2022-09-09T21:52:44;100065.14;;;10.95;73.47
64460;BME280;50828;53.756;21.140;2022-09-09T21:57:52;100054.89;;;10.95;73.19
64460;BME280;50828;53.756;21.140;2022-09-09T22:03:01;100057.01;;;10.95;73.41
64460;BME280;50828;53.756;21.140;2022-09-09T22:08:11;100057.71;;;10.95;73.40
64460;BME280;50828;53.756;21.140;2022-09-09T22:13:20;100053.88;;;10.94;73.15
64460;BME280;50828;53.756;21.140;2022-09-09T22:18:29;100060.90;;;10.95;73.43
64460;BME280;50828;53.756;21.140;2022-09-09T22:23:38;100064.09;;;10.95;73.25
64460;BME280;50828;53.756;21.140;2022-09-09T22:28:46;100058.77;;;10.95;73.04
64460;BME280;50828;53.756;21.140;2022-09-09T22:33:54;100066.71;;;10.95;73.44
64460;BME280;50828;53.756;21.140;2022-09-09T22:39:02;100062.34;;;10.94;73.17
64460;BME280;50828;53.756;21.140;2022-09-09T22:44:10;100056.92;;;10.93;73.46
64460;BME280;50828;53.756;21.140;2022-09-09T22:49:18;100052.72;;;10.92;73.38
64460;BME280;50828;53.756;21.140;2022-09-09T22:54:26;100044.46;;;10.92;73.18
64460;BME280;50828;53.756;21.140;2022-09-09T22:59:34;100036.63;;;10.90;73.36
64460;BME280;50828;53.756;21.140;2022-09-09T23:04:42;100031.36;;;10.89;73.58
64460;BME280;50828;53.756;21.140;2022-09-09T23:09:50;100032.63;;;10.89;73.13
64460;BME280;50828;53.756;21.140;2022-09-09T23:14:58;100024.89;;;10.88;73.34
64460;BME280;50828;53.756;21.140;2022-09-09T23:20:09;100018.95;;;10.87;73.22
64460;BME280;50828;53.756;21.140;2022-09-09T23:25:18;100028.85;;;10.86;73.13
64460;BME280;50828;53.756;21.140;2022-09-09T23:30:26;100021.84;;;10.86;73.45
64460;BME280;50828;53.756;21.140;2022-09-09T23:35:35;100018.52;;;10.84;73.42
64460;BME280;50828;53.756;21.140;2022-09-09T23:40:43;100008.13;;;10.80;73.33
64460;BME280;50828;53.756;21.140;2022-09-09T23:45:51;99999.84;;;10.80;73.40
64460;BME280;50828;53.756;21.140;2022-09-09T23:50:59;99998.17;;;10.78;73.23
64460;BME280;50828;53.756;21.140;2022-09-09T23:56:08;99991.88;;;10.77;73.61
